createdAt,value
2022-08-26T00:00:50.415Z,5.60
2022-08-26T00:03:21.092Z,5.82
2022-08-26T00:05:51.005Z,5.93
2022-08-26T00:08:20.326Z,5.40
2022-08-26T00:10:48.748Z,8.35
2022-08-26T00:13:19.577Z,6.28
2022-08-26T00:15:47.983Z,7.65
2022-08-26T00:18:21.867Z,6.30
2022-08-26T00:20:52.516Z,5.82
2022-08-26T00:23:20.842Z,8.57
2022-08-26T00:25:53.199Z,6.05
2022-08-26T00:28:22.017Z,5.60
2022-08-26T00:30:51.662Z,6.93
2022-08-26T00:33:21.063Z,8.45
2022-08-26T00:35:49.708Z,7.68
2022-08-26T00:38:22.217Z,6.72
2022-08-26T00:40:53.004Z,6.15
2022-08-26T00:43:21.622Z,5.25
2022-08-26T00:45:56.523Z,9.80
2022-08-26T00:48:27.830Z,6.22
2022-08-26T00:51:03.378Z,6.55
2022-08-26T00:53:37.602Z,5.78
2022-08-26T00:56:14.265Z,5.55
2022-08-26T00:58:43.098Z,6.10
2022-08-26T01:01:12.486Z,7.07
2022-08-26T01:03:41.727Z,7.13
2022-08-26T01:06:12.634Z,5.53
2022-08-26T01:08:42.684Z,6.07
2022-08-26T01:11:12.529Z,7.90
2022-08-26T01:13:41.013Z,7.05
2022-08-26T01:16:13.887Z,6.40
2022-08-26T01:18:44.445Z,8.60
2022-08-26T01:21:17.772Z,6.32
2022-08-26T01:23:49.904Z,7.38
2022-08-26T01:26:21.920Z,5.15
2022-08-26T01:28:52.193Z,10.60
2022-08-26T01:31:25.597Z,5.68
2022-08-26T01:34:00.798Z,5.18
2022-08-26T01:36:29.608Z,8.30
2022-08-26T01:38:59.330Z,7.80
2022-08-26T01:41:29.024Z,8.45
2022-08-26T01:43:58.757Z,6.93
2022-08-26T01:46:29.448Z,9.75
2022-08-26T01:49:01.011Z,5.43
2022-08-26T01:51:30.083Z,7.68
2022-08-26T01:53:59.899Z,8.93
2022-08-26T01:56:33.316Z,5.85
2022-08-26T01:59:08.094Z,5.43
2022-08-26T02:01:37.647Z,8.23
2022-08-26T02:04:14.265Z,8.07
2022-08-26T02:06:43.312Z,9.50
2022-08-26T02:09:13.293Z,7.95
2022-08-26T02:11:43.408Z,6.20
2022-08-26T02:14:16.887Z,6.68
2022-08-26T02:16:48.678Z,6.93
2022-08-26T02:19:19.997Z,9.25
2022-08-26T02:21:51.177Z,6.18
2022-08-26T02:24:24.592Z,7.60
2022-08-26T02:26:56.241Z,6.82
2022-08-26T02:29:29.918Z,8.75
2022-08-26T02:31:59.788Z,9.50
2022-08-26T02:34:31.063Z,8.02
2022-08-26T02:37:00.716Z,6.20
2022-08-26T02:39:31.997Z,8.10
2022-08-26T02:42:00.323Z,5.38
2022-08-26T02:44:29.145Z,6.35
2022-08-26T02:46:57.608Z,6.13
2022-08-26T02:49:27.422Z,7.85
2022-08-26T02:51:55.764Z,7.03
2022-08-26T02:54:24.308Z,8.52
2022-08-26T02:56:53.739Z,6.88
2022-08-26T02:59:24.468Z,8.48
2022-08-26T03:01:52.916Z,7.15
2022-08-26T03:04:25.963Z,8.93
2022-08-26T03:06:55.425Z,7.47
2022-08-26T03:09:24.056Z,10.32
2022-08-26T03:11:55.300Z,7.20
2022-08-26T03:14:24.427Z,6.95
2022-08-26T03:16:54.442Z,7.85
2022-08-26T03:19:23.312Z,9.57
2022-08-26T03:21:52.448Z,7.78
2022-08-26T03:24:20.936Z,12.88
2022-08-26T03:26:52.691Z,7.07
2022-08-26T03:29:39.343Z,6.10
2022-08-26T03:32:07.625Z,5.72
2022-08-26T03:34:35.933Z,5.32
2022-08-26T03:37:04.390Z,6.20
2022-08-26T03:39:33.382Z,5.88
2022-08-26T03:42:01.772Z,7.15
2022-08-26T03:44:31.534Z,8.10
2022-08-26T03:47:00.728Z,9.13
2022-08-26T03:49:29.932Z,6.72
2022-08-26T03:51:58.934Z,9.65
2022-08-26T03:54:27.035Z,12.27
2022-08-26T03:56:55.176Z,7.05
2022-08-26T03:59:23.369Z,8.23
2022-08-26T04:01:54.108Z,6.15
2022-08-26T04:04:22.809Z,8.65
2022-08-26T04:06:58.311Z,5.80
2022-08-26T04:09:27.708Z,9.05
2022-08-26T04:11:58.629Z,9.50
2022-08-26T04:14:28.282Z,10.05
2022-08-26T04:16:57.887Z,5.80
2022-08-26T04:19:27.042Z,9.20
2022-08-26T04:21:55.744Z,6.85
2022-08-26T04:24:26.808Z,6.85
2022-08-26T04:26:56.565Z,6.85
2022-08-26T04:29:27.243Z,6.88
2022-08-26T04:31:57.390Z,9.13
2022-08-26T04:34:28.527Z,8.23
2022-08-26T04:36:57.702Z,7.32
2022-08-26T04:39:27.734Z,7.75
2022-08-26T04:41:57.816Z,7.30
2022-08-26T04:44:27.706Z,7.45
2022-08-26T04:46:58.381Z,6.10
2022-08-26T04:49:27.524Z,8.98
2022-08-26T04:51:56.082Z,5.22
2022-08-26T04:54:25.217Z,7.70
2022-08-26T04:56:53.393Z,8.40
2022-08-26T04:59:21.646Z,7.28
2022-08-26T05:01:52.081Z,7.78
2022-08-26T05:04:22.184Z,7.72
2022-08-26T05:06:52.139Z,6.07
2022-08-26T05:09:21.061Z,8.75
2022-08-26T05:11:52.128Z,6.88
2022-08-26T05:14:21.354Z,7.45
2022-08-26T05:16:50.453Z,8.05
2022-08-26T05:19:18.795Z,9.93
2022-08-26T05:21:49.468Z,6.60
2022-08-26T05:24:18.284Z,8.35
2022-08-26T05:26:48.245Z,9.57
2022-08-26T05:29:16.832Z,8.80
2022-08-26T05:31:45.188Z,9.80
2022-08-26T05:34:13.401Z,7.18
2022-08-26T05:36:42.180Z,7.68
2022-08-26T05:39:11.999Z,8.60
2022-08-26T05:41:42.937Z,6.95
2022-08-26T05:44:15.019Z,9.63
2022-08-26T05:46:45.120Z,14.57
2022-08-26T05:49:14.065Z,6.35
2022-08-26T05:51:47.555Z,9.20
2022-08-26T05:54:21.826Z,10.30
2022-08-26T05:56:50.939Z,9.73
2022-08-26T05:59:24.359Z,8.93
2022-08-26T06:01:53.092Z,9.82
2022-08-26T06:04:21.299Z,11.88
2022-08-26T06:06:49.604Z,10.77
2022-08-26T06:09:20.326Z,11.95
2022-08-26T06:11:49.712Z,8.18
2022-08-26T06:14:18.307Z,9.27
2022-08-26T06:16:46.805Z,7.43
2022-08-26T06:19:17.301Z,7.43
2022-08-26T06:21:53.972Z,9.07
2022-08-26T06:24:41.742Z,8.95
2022-08-26T06:27:13.887Z,6.63
2022-08-26T06:29:43.480Z,13.80
2022-08-26T06:32:11.612Z,10.75
2022-08-26T06:34:39.706Z,10.25
2022-08-26T06:37:08.842Z,9.68
2022-08-26T06:39:41.196Z,8.93
2022-08-26T06:42:10.989Z,7.88
2022-08-26T06:44:40.877Z,8.18
2022-08-26T06:47:09.329Z,10.75
2022-08-26T06:49:37.428Z,7.82
2022-08-26T06:52:05.581Z,8.05
2022-08-26T06:54:33.761Z,8.82
2022-08-26T06:57:03.235Z,9.50
2022-08-26T06:59:32.204Z,8.60
2022-08-26T07:02:00.409Z,8.93
2022-08-26T07:04:30.491Z,8.05
2022-08-26T07:06:58.867Z,8.68
2022-08-26T07:09:29.191Z,10.95
2022-08-26T07:11:58.330Z,9.77
2022-08-26T07:14:28.074Z,8.30
2022-08-26T07:16:56.472Z,7.35
2022-08-26T07:19:29.016Z,10.05
2022-08-26T07:22:01.816Z,10.82
2022-08-26T07:24:31.077Z,10.25
2022-08-26T07:27:01.283Z,11.75
2022-08-26T07:29:31.196Z,10.80
2022-08-26T07:31:59.632Z,11.70
2022-08-26T07:34:28.306Z,11.48
2022-08-26T07:36:56.974Z,10.65
2022-08-26T07:39:26.209Z,12.07
2022-08-26T07:41:54.713Z,10.82
2022-08-26T07:44:24.059Z,14.27
2022-08-26T07:46:53.887Z,11.00
2022-08-26T07:49:23.780Z,11.05
2022-08-26T07:51:52.522Z,12.32
2022-08-26T07:54:26.642Z,12.35
2022-08-26T07:56:56.150Z,13.45
2022-08-26T07:59:24.887Z,12.95
2022-08-26T08:01:59.152Z,12.98
2022-08-26T08:04:29.440Z,14.40
2022-08-26T08:06:57.827Z,14.35
2022-08-26T08:09:27.176Z,17.83
2022-08-26T08:11:55.468Z,15.23
2022-08-26T08:14:23.586Z,14.25
2022-08-26T08:16:55.099Z,12.63
2022-08-26T08:19:29.889Z,14.60
2022-08-26T08:22:17.102Z,15.60
2022-08-26T08:24:46.413Z,14.27
2022-08-26T08:27:23.295Z,16.23
2022-08-26T08:29:54.324Z,14.82
2022-08-26T08:32:23.696Z,20.30
2022-08-26T08:34:53.499Z,15.02
2022-08-26T08:37:21.569Z,16.92
2022-08-26T08:39:50.175Z,18.50
2022-08-26T08:42:38.983Z,15.15
2022-08-26T08:45:11.370Z,16.70
2022-08-26T08:47:43.081Z,15.25
2022-08-26T08:50:22.964Z,14.95
2022-08-26T08:52:56.051Z,16.08
2022-08-26T08:55:27.736Z,14.00
2022-08-26T08:58:03.784Z,17.88
2022-08-26T09:00:40.194Z,13.40
2022-08-26T09:03:22.637Z,17.33
2022-08-26T09:05:55.457Z,15.07
2022-08-26T09:08:27.479Z,16.77
2022-08-26T09:10:59.206Z,16.80
2022-08-26T09:13:29.147Z,17.80
2022-08-26T09:16:08.303Z,17.80
2022-08-26T09:18:51.804Z,15.63
2022-08-26T09:21:23.690Z,15.20
2022-08-26T09:23:55.808Z,19.70
2022-08-26T09:26:30.569Z,16.83
2022-08-26T09:29:01.024Z,16.48
2022-08-26T09:31:32.449Z,16.67
2022-08-26T09:34:17.478Z,16.58
2022-08-26T09:36:49.585Z,15.25
2022-08-26T09:39:34.671Z,15.90
2022-08-26T09:42:09.536Z,18.02
2022-08-26T09:44:54.241Z,14.88
2022-08-26T09:47:26.246Z,15.70
2022-08-26T09:50:09.516Z,19.05
2022-08-26T09:52:40.581Z,14.73
2022-08-26T09:55:15.695Z,16.80
2022-08-26T09:57:51.238Z,18.27
2022-08-26T10:00:38.515Z,17.20
2022-08-26T10:03:10.790Z,14.15
2022-08-26T10:05:46.048Z,16.10
2022-08-26T10:08:25.479Z,17.83
2022-08-26T10:10:55.379Z,15.40
2022-08-26T10:13:29.469Z,20.42
2022-08-26T10:16:04.608Z,15.55
2022-08-26T10:18:37.940Z,19.25
2022-08-26T10:21:11.422Z,17.17
2022-08-26T10:23:45.060Z,14.02
2022-08-26T10:26:17.589Z,15.05
2022-08-26T10:28:52.143Z,13.75
2022-08-26T10:31:27.667Z,14.55
2022-08-26T10:33:58.839Z,16.52
2022-08-26T10:39:46.295Z,15.60
2022-08-26T10:42:22.878Z,15.70
2022-08-26T10:44:58.720Z,15.27
2022-08-26T10:47:34.266Z,15.50
2022-08-26T10:50:04.345Z,13.80
2022-08-26T10:52:43.246Z,14.88
2022-08-26T10:55:22.124Z,14.70
2022-08-26T10:57:57.594Z,18.42
2022-08-26T11:00:48.544Z,18.98
2022-08-26T11:03:30.480Z,14.68
2022-08-26T11:06:26.934Z,18.52
2022-08-26T11:08:56.898Z,19.38
2022-08-26T11:11:48.025Z,18.77
2022-08-26T11:14:46.150Z,19.38
2022-08-26T11:17:56.970Z,18.60
2022-08-26T11:20:37.553Z,20.25
2022-08-26T11:23:50.184Z,17.25
2022-08-26T11:26:35.882Z,19.40
2022-08-26T11:29:12.828Z,19.98
2022-08-26T11:31:56.779Z,19.75
2022-08-26T11:34:56.347Z,18.42
2022-08-26T11:37:32.984Z,18.45
2022-08-26T11:40:04.218Z,18.27
2022-08-26T11:42:39.431Z,17.30
2022-08-26T11:45:18.560Z,17.60
2022-08-26T11:47:49.415Z,20.23
2022-08-26T11:50:21.629Z,17.42
2022-08-26T11:53:01.697Z,17.10
2022-08-26T11:55:31.090Z,17.77
2022-08-26T11:58:02.014Z,18.65
2022-08-26T12:00:39.071Z,17.67
2022-08-26T12:03:19.464Z,16.38
2022-08-26T12:05:50.248Z,20.70
2022-08-26T12:08:21.686Z,14.45
2022-08-26T12:10:50.412Z,17.40
2022-08-26T12:13:23.854Z,20.88
2022-08-26T12:15:57.299Z,15.25
2022-08-26T12:18:29.051Z,18.13
2022-08-26T12:21:00.518Z,17.48
2022-08-26T12:23:43.867Z,14.70
2022-08-26T12:26:20.878Z,16.30
2022-08-26T12:28:53.134Z,17.23
2022-08-26T12:31:25.906Z,15.52
2022-08-26T12:33:55.216Z,18.50
2022-08-26T12:36:28.531Z,12.60
2022-08-26T12:38:58.544Z,14.30
2022-08-26T12:41:48.436Z,12.70
2022-08-26T12:44:37.354Z,16.70
2022-08-26T12:47:13.729Z,14.63
2022-08-26T12:49:44.011Z,17.08
2022-08-26T12:52:30.904Z,16.10
2022-08-26T12:55:01.290Z,15.40
2022-08-26T12:57:32.737Z,17.55
2022-08-26T13:00:30.375Z,13.38
2022-08-26T13:03:01.709Z,13.27
2022-08-26T13:05:35.131Z,12.38
2022-08-26T13:08:18.001Z,12.32
2022-08-26T13:10:48.573Z,13.60
2022-08-26T13:13:16.696Z,13.95
2022-08-26T13:15:44.868Z,13.98
2022-08-26T13:18:14.442Z,14.63
2022-08-26T13:20:44.860Z,10.63
2022-08-26T13:23:13.480Z,12.38
2022-08-26T13:25:41.976Z,13.50
2022-08-26T13:28:10.172Z,10.57
2022-08-26T13:30:38.370Z,15.57
2022-08-26T13:33:08.664Z,13.80
2022-08-26T13:35:41.853Z,12.48
2022-08-26T13:38:33.324Z,22.15
2022-08-26T13:41:03.753Z,16.90
2022-08-26T13:43:32.736Z,13.95
2022-08-26T13:46:01.569Z,13.32
2022-08-26T13:48:29.887Z,13.63
2022-08-26T13:50:59.345Z,14.82
2022-08-26T13:53:29.236Z,15.00
2022-08-26T13:55:57.651Z,12.32
2022-08-26T13:58:26.060Z,13.05
2022-08-26T14:00:54.882Z,15.02
2022-08-26T14:03:23.089Z,15.35
2022-08-26T14:05:51.212Z,13.40
2022-08-26T14:08:21.141Z,17.23
2022-08-26T14:10:49.516Z,13.98
2022-08-26T14:13:18.349Z,12.57
2022-08-26T14:15:46.719Z,13.57
2022-08-26T14:18:17.485Z,13.00
2022-08-26T14:20:49.723Z,11.70
2022-08-26T14:23:19.337Z,14.40
2022-08-26T14:25:48.801Z,11.45
2022-08-26T14:28:16.942Z,13.55
2022-08-26T14:30:48.607Z,12.50
2022-08-26T14:33:17.425Z,13.02
2022-08-26T14:35:47.951Z,14.60
2022-08-26T14:38:17.546Z,13.55
2022-08-26T14:40:46.113Z,13.25
2022-08-26T14:43:16.203Z,13.32
2022-08-26T14:45:45.859Z,12.02
2022-08-26T14:48:14.134Z,11.65
2022-08-26T14:50:42.352Z,13.88
2022-08-26T14:53:27.575Z,11.95
2022-08-26T14:55:55.722Z,11.77
2022-08-26T14:58:25.148Z,11.18
2022-08-26T15:00:59.533Z,15.35
2022-08-26T15:03:32.680Z,13.07
2022-08-26T15:06:00.953Z,11.82
2022-08-26T15:08:29.077Z,11.02
2022-08-26T15:10:57.183Z,11.98
2022-08-26T15:13:26.734Z,11.30
2022-08-26T15:15:54.935Z,9.45
2022-08-26T15:18:23.470Z,9.95
2022-08-26T15:20:51.624Z,12.48
2022-08-26T15:23:19.804Z,10.55
2022-08-26T15:25:49.433Z,11.55
2022-08-26T15:28:17.563Z,11.02
2022-08-26T15:30:47.034Z,12.13
2022-08-26T15:33:15.629Z,9.45
2022-08-26T15:35:43.850Z,11.13
2022-08-26T15:38:12.580Z,11.80
2022-08-26T15:40:40.764Z,13.02
2022-08-26T15:43:25.691Z,11.95
2022-08-26T15:45:58.321Z,12.07
2022-08-26T15:48:27.258Z,7.93
2022-08-26T15:50:56.861Z,8.02
2022-08-26T15:53:25.504Z,11.85
2022-08-26T15:55:56.279Z,9.55
2022-08-26T15:58:26.411Z,8.30
2022-08-26T16:00:57.125Z,8.65
2022-08-26T16:03:25.532Z,10.00
2022-08-26T16:05:53.647Z,11.60
2022-08-26T16:08:22.355Z,9.98
2022-08-26T16:10:51.369Z,16.13
2022-08-26T16:13:20.531Z,10.25
2022-08-26T16:15:49.442Z,8.88
2022-08-26T16:18:20.337Z,10.07
2022-08-26T16:21:04.999Z,9.07
2022-08-26T16:23:44.982Z,9.35
2022-08-26T16:26:15.203Z,11.55
2022-08-26T16:28:44.453Z,8.27
2022-08-26T16:31:13.091Z,8.23
2022-08-26T16:33:42.750Z,8.57
2022-08-26T16:36:11.990Z,7.57
2022-08-26T16:38:41.232Z,10.60
2022-08-26T16:41:10.282Z,7.45
2022-08-26T16:43:38.469Z,9.55
2022-08-26T16:46:08.085Z,10.95
2022-08-26T16:48:37.896Z,9.80
2022-08-26T16:51:12.133Z,9.10
2022-08-26T16:53:40.283Z,8.75
2022-08-26T16:56:12.746Z,7.55
2022-08-26T16:58:40.884Z,5.25
2022-08-26T17:01:09.189Z,3.75
2022-08-26T17:03:37.620Z,3.28
2022-08-26T17:06:07.820Z,3.47
2022-08-26T17:08:37.424Z,3.25
2022-08-26T17:11:05.533Z,3.13
2022-08-26T17:13:35.460Z,7.78
2022-08-26T17:16:05.350Z,5.30
2022-08-26T17:18:34.589Z,4.35
2022-08-26T17:21:04.065Z,5.63
2022-08-26T17:23:33.879Z,3.92
2022-08-26T17:26:02.276Z,6.07
2022-08-26T17:28:30.457Z,3.72
2022-08-26T17:30:59.091Z,4.53
2022-08-26T17:33:27.879Z,3.72
2022-08-26T17:35:56.750Z,7.35
2022-08-26T17:38:25.298Z,4.85
2022-08-26T17:40:54.738Z,5.25
2022-08-26T17:43:22.944Z,6.60
2022-08-26T17:45:51.116Z,5.47
2022-08-26T17:48:19.276Z,4.30
2022-08-26T17:50:49.586Z,4.05
2022-08-26T17:53:18.762Z,4.70
2022-08-26T17:55:47.727Z,5.43
2022-08-26T17:58:18.940Z,6.80
2022-08-26T18:00:48.911Z,4.90
2022-08-26T18:03:17.738Z,4.20
2022-08-26T18:05:49.137Z,5.80
2022-08-26T18:08:17.280Z,3.78
2022-08-26T18:10:45.803Z,4.85
2022-08-26T18:13:15.340Z,3.40
2022-08-26T18:15:47.103Z,3.65
2022-08-26T18:18:16.223Z,5.90
2022-08-26T18:20:46.111Z,5.60
2022-08-26T18:23:20.119Z,4.18
2022-08-26T18:25:48.179Z,4.13
2022-08-26T18:28:16.366Z,6.50
2022-08-26T18:30:46.183Z,4.32
2022-08-26T18:33:14.766Z,4.45
2022-08-26T18:35:45.006Z,4.63
2022-08-26T18:38:15.370Z,5.10
2022-08-26T18:40:45.908Z,4.22
2022-08-26T18:43:14.056Z,5.28
2022-08-26T18:45:42.178Z,7.47
2022-08-26T18:48:11.907Z,3.80
2022-08-26T18:50:40.897Z,4.75
2022-08-26T18:53:09.263Z,5.07
2022-08-26T18:55:37.440Z,4.65
2022-08-26T18:58:05.601Z,4.60
2022-08-26T19:00:33.984Z,4.30
2022-08-26T19:03:02.537Z,4.32
2022-08-26T19:05:32.236Z,4.40
2022-08-26T19:08:00.321Z,4.53
2022-08-26T19:10:28.441Z,4.15
2022-08-26T19:13:00.559Z,3.72
2022-08-26T19:15:29.059Z,5.68
2022-08-26T19:17:57.470Z,4.78
2022-08-26T19:20:25.823Z,4.20
2022-08-26T19:22:57.432Z,5.35
2022-08-26T19:25:27.849Z,5.30
2022-08-26T19:27:56.062Z,3.78
2022-08-26T19:30:24.231Z,4.63
2022-08-26T19:32:56.156Z,5.07
2022-08-26T19:35:27.498Z,4.53
2022-08-26T19:37:57.186Z,4.75
2022-08-26T19:40:25.554Z,4.65
2022-08-26T19:42:53.787Z,4.43
2022-08-26T19:45:25.287Z,4.63
2022-08-26T19:47:54.138Z,5.97
2022-08-26T19:50:22.730Z,3.75
2022-08-26T19:52:50.863Z,6.20
2022-08-26T19:55:22.472Z,6.10
2022-08-26T19:57:52.349Z,4.65
2022-08-26T20:00:23.606Z,5.80
2022-08-26T20:02:52.825Z,4.90
2022-08-26T20:05:23.895Z,5.88
2022-08-26T20:07:52.405Z,4.65
2022-08-26T20:10:25.124Z,6.18
2022-08-26T20:12:53.681Z,7.43
2022-08-26T20:15:23.034Z,7.03
2022-08-26T20:17:52.314Z,5.85
2022-08-26T20:20:37.980Z,7.40
2022-08-26T20:23:06.242Z,7.53
2022-08-26T20:25:35.894Z,6.07
2022-08-26T20:28:04.488Z,13.27
2022-08-26T20:30:32.649Z,4.63
2022-08-26T20:33:00.816Z,6.55
2022-08-26T20:35:28.880Z,6.70
2022-08-26T20:37:57.010Z,6.95
2022-08-26T20:40:25.313Z,5.03
2022-08-26T20:42:54.866Z,4.60
2022-08-26T20:45:22.945Z,5.40
2022-08-26T20:47:51.681Z,5.93
2022-08-26T20:50:20.268Z,4.13
2022-08-26T20:52:48.358Z,6.65
2022-08-26T20:55:16.691Z,6.47
2022-08-26T20:57:44.782Z,3.97
2022-08-26T21:00:16.466Z,5.97
2022-08-26T21:02:46.280Z,3.75
2022-08-26T21:05:14.469Z,4.88
2022-08-26T21:07:42.581Z,5.38
2022-08-26T21:10:12.148Z,8.50
2022-08-26T21:12:40.243Z,3.80
2022-08-26T21:15:09.427Z,4.22
2022-08-26T21:17:38.925Z,3.28
2022-08-26T21:20:08.808Z,3.70
2022-08-26T21:22:37.247Z,4.10
2022-08-26T21:25:06.081Z,4.07
2022-08-26T21:27:36.265Z,4.38
2022-08-26T21:30:05.148Z,3.08
2022-08-26T21:32:33.739Z,3.33
2022-08-26T21:35:04.990Z,3.45
2022-08-26T21:37:33.075Z,3.83
2022-08-26T21:40:03.559Z,3.60
2022-08-26T21:42:34.065Z,3.42
2022-08-26T21:45:02.966Z,2.60
2022-08-26T21:47:32.668Z,2.88
2022-08-26T21:50:02.450Z,3.30
2022-08-26T21:52:30.605Z,3.20
2022-08-26T21:54:59.912Z,2.83
2022-08-26T21:57:29.602Z,4.47
2022-08-26T21:59:58.802Z,3.42
2022-08-26T22:02:27.038Z,2.25
2022-08-26T22:04:56.415Z,2.58
2022-08-26T22:07:25.941Z,2.25
2022-08-26T22:09:54.014Z,3.38
2022-08-26T22:12:22.050Z,2.90
2022-08-26T22:14:51.305Z,4.78
2022-08-26T22:17:19.459Z,5.35
2022-08-26T22:19:47.589Z,2.92
2022-08-26T22:22:16.151Z,3.70
2022-08-26T22:24:45.685Z,2.33
2022-08-26T22:27:15.111Z,3.75
2022-08-26T22:29:43.272Z,2.88
2022-08-26T22:32:11.413Z,6.18
2022-08-26T22:34:39.585Z,4.93
2022-08-26T22:37:07.760Z,2.22
2022-08-26T22:39:35.807Z,2.63
2022-08-26T22:42:05.660Z,2.47
2022-08-26T22:44:36.537Z,2.58
2022-08-26T22:47:04.864Z,2.28
2022-08-26T22:49:32.964Z,4.60
2022-08-26T22:52:01.004Z,3.20
2022-08-26T22:54:29.080Z,3.40
2022-08-26T22:56:57.129Z,4.15
2022-08-26T22:59:26.602Z,2.92
2022-08-26T23:01:54.630Z,3.20
2022-08-26T23:04:22.998Z,2.50
2022-08-26T23:06:51.215Z,2.97
2022-08-26T23:09:19.965Z,2.35
2022-08-26T23:11:50.313Z,2.50
2022-08-26T23:14:19.382Z,2.58
2022-08-26T23:16:48.903Z,2.72
2022-08-26T23:19:19.806Z,4.20
2022-08-26T23:21:48.375Z,2.50
2022-08-26T23:24:17.276Z,3.38
2022-08-26T23:26:46.618Z,3.65
2022-08-26T23:29:15.568Z,6.65
2022-08-26T23:31:44.214Z,2.33
2022-08-26T23:34:31.379Z,4.13
2022-08-26T23:37:00.052Z,2.88
2022-08-26T23:39:29.223Z,2.63
2022-08-26T23:41:58.034Z,2.90
2022-08-26T23:44:26.574Z,3.60
2022-08-26T23:46:55.028Z,2.60
2022-08-26T23:49:25.546Z,3.75
2022-08-26T23:52:11.281Z,3.83
2022-08-26T23:54:39.745Z,2.92
2022-08-26T23:57:09.393Z,2.88
2022-08-26T23:59:38.759Z,5.72
